createdAt,value
2022-10-06T00:00:23.013Z,15.29
2022-10-06T00:01:24.375Z,15.29
2022-10-06T00:02:23.893Z,15.36
2022-10-06T00:03:26.713Z,15.24
2022-10-06T00:04:27.565Z,15.24
2022-10-06T00:05:24.406Z,15.21
2022-10-06T00:06:27.646Z,15.28
2022-10-06T00:07:25.889Z,15.25
2022-10-06T00:08:26.678Z,15.17
2022-10-06T00:09:29.081Z,15.27
2022-10-06T00:10:25.897Z,15.31
2022-10-06T00:11:27.213Z,15.39
2022-10-06T00:12:27.433Z,15.31
2022-10-06T00:13:28.657Z,15.33
2022-10-06T00:14:29.164Z,15.39
2022-10-06T00:15:28.203Z,15.36
2022-10-06T00:16:28.670Z,15.39
2022-10-06T00:17:27.971Z,15.40
2022-10-06T00:18:28.617Z,15.43
2022-10-06T00:19:29.346Z,15.55
2022-10-06T00:20:30.795Z,15.54
2022-10-06T00:21:31.722Z,15.55
2022-10-06T00:22:29.499Z,15.46
2022-10-06T00:23:32.680Z,15.49
2022-10-06T00:24:30.889Z,15.52
2022-10-06T00:25:32.345Z,15.54
2022-10-06T00:26:30.719Z,15.54
2022-10-06T00:27:30.941Z,15.57
2022-10-06T00:28:31.824Z,15.55
2022-10-06T00:29:33.438Z,15.51
2022-10-06T00:30:33.595Z,15.61
2022-10-06T00:31:34.154Z,15.54
2022-10-06T00:32:32.368Z,15.58
2022-10-06T00:33:32.744Z,15.57
2022-10-06T00:34:33.775Z,15.61
2022-10-06T00:35:35.289Z,15.64
2022-10-06T00:36:33.594Z,15.65
2022-10-06T00:37:34.727Z,15.72
2022-10-06T00:38:35.968Z,15.68
2022-10-06T00:39:34.359Z,15.72
2022-10-06T00:40:36.506Z,15.79
2022-10-06T00:41:35.910Z,15.76
2022-10-06T00:42:36.073Z,15.91
2022-10-06T00:43:37.396Z,15.80
2022-10-06T00:44:35.847Z,15.82
2022-10-06T00:45:36.034Z,15.73
2022-10-06T00:46:37.396Z,15.62
2022-10-06T00:47:38.563Z,15.65
2022-10-06T00:48:37.756Z,15.33
2022-10-06T00:49:38.949Z,14.99
2022-10-06T00:50:39.133Z,14.86
2022-10-06T00:51:40.818Z,14.68
2022-10-06T00:52:38.234Z,14.53
2022-10-06T00:53:39.429Z,14.44
2022-10-06T00:54:38.805Z,14.50
2022-10-06T00:55:39.108Z,14.37
2022-10-06T00:56:42.270Z,14.30
2022-10-06T00:57:41.570Z,14.32
2022-10-06T00:58:41.739Z,14.30
2022-10-06T00:59:41.918Z,14.33
2022-10-06T01:00:40.552Z,14.36
2022-10-06T01:01:41.733Z,14.44
2022-10-06T01:02:43.087Z,14.23
2022-10-06T01:03:43.280Z,14.26
2022-10-06T01:04:41.797Z,14.17
2022-10-06T01:05:42.187Z,14.10
2022-10-06T01:06:42.504Z,14.18
2022-10-06T01:07:43.643Z,14.25
2022-10-06T01:08:44.832Z,14.28
2022-10-06T01:09:43.338Z,14.20
2022-10-06T01:10:43.658Z,14.17
2022-10-06T01:11:46.471Z,14.22
2022-10-06T01:12:44.248Z,14.18
2022-10-06T01:13:44.559Z,14.18
2022-10-06T01:14:46.744Z,14.22
2022-10-06T01:15:45.252Z,14.18
2022-10-06T01:16:48.314Z,14.18
2022-10-06T01:17:47.548Z,14.23
2022-10-06T01:18:47.781Z,14.22
2022-10-06T01:19:46.410Z,14.25
2022-10-06T01:20:46.737Z,14.22
2022-10-06T01:21:49.887Z,14.33
2022-10-06T01:22:47.294Z,14.33
2022-10-06T01:23:49.471Z,14.33
2022-10-06T01:24:49.665Z,14.41
2022-10-06T01:25:48.180Z,14.41
2022-10-06T01:26:51.357Z,14.36
2022-10-06T01:27:48.814Z,14.44
2022-10-06T01:28:49.096Z,14.43
2022-10-06T01:29:51.183Z,14.48
2022-10-06T01:30:51.413Z,14.54
2022-10-06T01:31:52.358Z,14.58
2022-10-06T01:32:50.136Z,14.65
2022-10-06T01:33:52.316Z,14.55
2022-10-06T01:34:50.700Z,14.66
2022-10-06T01:35:51.022Z,14.60
2022-10-06T01:36:54.804Z,14.60
2022-10-06T01:37:51.592Z,14.65
2022-10-06T01:38:51.916Z,14.69
2022-10-06T01:39:52.227Z,14.79
2022-10-06T01:40:54.416Z,14.81
2022-10-06T01:41:53.701Z,14.73
2022-10-06T01:42:53.077Z,14.79
2022-10-06T01:43:55.255Z,14.82
2022-10-06T01:44:55.456Z,14.89
2022-10-06T01:45:53.973Z,14.85
2022-10-06T01:46:55.756Z,14.97
2022-10-06T01:47:56.485Z,14.89
2022-10-06T01:48:56.671Z,14.96
2022-10-06T01:49:55.174Z,14.99
2022-10-06T01:50:55.486Z,15.11
2022-10-06T01:51:58.286Z,15.18
2022-10-06T01:52:58.043Z,15.17
2022-10-06T01:53:58.221Z,15.21
2022-10-06T01:54:56.616Z,15.19
2022-10-06T01:55:56.948Z,15.24
2022-10-06T01:57:00.611Z,15.28
2022-10-06T01:57:59.318Z,15.25
2022-10-06T01:58:59.505Z,15.27
2022-10-06T01:59:58.136Z,15.29
2022-10-06T02:00:58.446Z,15.29
2022-10-06T02:02:01.309Z,15.31
2022-10-06T02:03:00.967Z,15.35
2022-10-06T02:04:02.628Z,15.33
2022-10-06T02:05:01.337Z,15.39
2022-10-06T02:06:01.571Z,15.37
2022-10-06T02:07:00.287Z,15.39
2022-10-06T02:08:01.414Z,15.43
2022-10-06T02:09:03.521Z,15.40
2022-10-06T02:10:02.002Z,15.43
2022-10-06T02:11:02.183Z,15.46
2022-10-06T02:12:04.522Z,15.47
2022-10-06T02:13:02.759Z,15.55
2022-10-06T02:14:04.114Z,15.42
2022-10-06T02:15:04.298Z,15.46
2022-10-06T02:16:03.818Z,15.54
2022-10-06T02:17:04.168Z,15.44
2022-10-06T02:18:04.333Z,15.51
2022-10-06T02:19:05.667Z,15.55
2022-10-06T02:20:03.930Z,15.42
2022-10-06T02:21:07.599Z,15.36
2022-10-06T02:22:07.273Z,15.22
2022-10-06T02:23:05.637Z,15.07
2022-10-06T02:24:06.054Z,15.04
2022-10-06T02:25:07.326Z,15.03
2022-10-06T02:26:06.643Z,14.97
2022-10-06T02:27:08.835Z,14.94
2022-10-06T02:28:07.308Z,14.96
2022-10-06T02:29:07.373Z,14.94
2022-10-06T02:30:08.718Z,15.06
2022-10-06T02:31:08.026Z,14.97
2022-10-06T02:32:07.462Z,14.97
2022-10-06T02:33:07.654Z,15.00
2022-10-06T02:34:07.964Z,15.02
2022-10-06T02:35:09.156Z,15.00
2022-10-06T02:36:08.556Z,15.04
2022-10-06T02:37:12.175Z,15.09
2022-10-06T02:38:09.220Z,15.03
2022-10-06T02:39:11.386Z,15.06
2022-10-06T02:40:11.702Z,15.17
2022-10-06T02:41:11.876Z,15.18
2022-10-06T02:42:12.023Z,15.24
2022-10-06T02:43:10.661Z,15.28
2022-10-06T02:44:12.841Z,15.31
2022-10-06T02:45:13.035Z,15.39
2022-10-06T02:46:11.562Z,15.40
2022-10-06T02:47:12.201Z,15.36
2022-10-06T02:48:12.175Z,15.43
2022-10-06T02:49:12.489Z,15.42
2022-10-06T02:50:14.714Z,15.37
2022-10-06T02:51:13.095Z,15.35
2022-10-06T02:52:15.259Z,15.35
2022-10-06T02:53:15.435Z,15.24
2022-10-06T02:54:15.627Z,15.21
2022-10-06T02:55:15.807Z,15.24
2022-10-06T02:56:16.496Z,15.31
2022-10-06T02:57:16.679Z,15.36
2022-10-06T02:58:16.860Z,15.29
2022-10-06T02:59:17.057Z,15.21
2022-10-06T03:00:17.761Z,15.14
2022-10-06T03:01:16.254Z,15.19
2022-10-06T03:02:18.448Z,15.18
2022-10-06T03:03:16.699Z,15.21
2022-10-06T03:04:18.874Z,15.28
2022-10-06T03:05:19.136Z,15.17
2022-10-06T03:06:17.520Z,15.18
2022-10-06T03:07:19.708Z,15.19
2022-10-06T03:08:18.097Z,15.17
2022-10-06T03:09:18.414Z,15.15
2022-10-06T03:10:20.591Z,15.14
2022-10-06T03:11:19.936Z,15.21
2022-10-06T03:12:21.183Z,15.14
2022-10-06T03:13:19.576Z,15.19
2022-10-06T03:14:22.131Z,15.11
2022-10-06T03:15:20.142Z,15.04
2022-10-06T03:16:23.831Z,15.09
2022-10-06T03:17:22.092Z,15.09
2022-10-06T03:18:21.092Z,15.14
2022-10-06T03:19:21.408Z,15.11
2022-10-06T03:20:21.717Z,15.15
2022-10-06T03:21:24.933Z,15.17
2022-10-06T03:22:24.159Z,15.06
2022-10-06T03:23:24.360Z,15.02
2022-10-06T03:24:23.002Z,14.96
2022-10-06T03:25:23.310Z,15.04
2022-10-06T03:26:24.423Z,15.02
2022-10-06T03:27:25.825Z,14.94
2022-10-06T03:28:24.286Z,14.99
2022-10-06T03:29:24.440Z,14.97
2022-10-06T03:30:24.751Z,15.00
2022-10-06T03:31:29.549Z,15.09
2022-10-06T03:32:27.171Z,14.99
2022-10-06T03:33:25.548Z,15.00
2022-10-06T03:34:27.705Z,14.99
2022-10-06T03:35:26.190Z,15.00
2022-10-06T03:36:27.301Z,15.03
2022-10-06T03:37:28.712Z,15.02
2022-10-06T03:38:27.516Z,14.92
2022-10-06T03:39:27.433Z,14.99
2022-10-06T03:40:27.746Z,14.91
2022-10-06T03:41:29.104Z,15.06
2022-10-06T03:42:30.274Z,15.00
2022-10-06T03:43:28.661Z,14.96
2022-10-06T03:44:30.841Z,14.94
2022-10-06T03:45:31.054Z,15.03
2022-10-06T03:46:29.643Z,15.00
2022-10-06T03:47:32.725Z,14.99
2022-10-06T03:48:30.509Z,15.03
2022-10-06T03:49:33.270Z,15.09
2022-10-06T03:50:30.673Z,15.18
2022-10-06T03:51:32.778Z,15.17
2022-10-06T03:52:32.164Z,15.17
2022-10-06T03:54:49.341Z,15.18
2022-10-06T03:55:49.544Z,15.14
2022-10-06T03:56:49.972Z,15.18
2022-10-06T03:57:49.339Z,15.14
2022-10-06T03:58:51.527Z,15.18
2022-10-06T03:59:50.958Z,15.09
2022-10-06T04:00:51.158Z,15.15
2022-10-06T04:01:51.565Z,15.19
2022-10-06T04:02:51.685Z,15.19
2022-10-06T04:03:54.046Z,15.28
2022-10-06T04:04:53.286Z,15.24
2022-10-06T04:05:52.634Z,15.22
2022-10-06T04:06:52.839Z,15.21
2022-10-06T04:07:54.191Z,15.22
2022-10-06T04:08:55.376Z,15.25
2022-10-06T04:09:52.905Z,15.11
2022-10-06T04:10:53.426Z,15.15
2022-10-06T04:11:53.444Z,15.14
2022-10-06T04:12:53.760Z,15.22
2022-10-06T04:13:54.983Z,15.17
2022-10-06T04:14:59.942Z,15.27
2022-10-06T04:15:54.650Z,15.29
2022-10-06T04:16:54.921Z,15.28
2022-10-06T04:17:55.243Z,15.27
2022-10-06T04:18:56.553Z,15.27
2022-10-06T04:19:57.807Z,15.33
2022-10-06T04:20:56.056Z,15.43
2022-10-06T04:21:57.389Z,15.40
2022-10-06T04:22:57.582Z,15.33
2022-10-06T04:23:59.807Z,15.35
2022-10-06T04:24:58.061Z,15.22
2022-10-06T04:25:57.560Z,15.35
2022-10-06T04:26:58.904Z,15.37
2022-10-06T04:27:58.202Z,15.35
2022-10-06T04:29:00.348Z,15.24
2022-10-06T04:29:58.750Z,15.19
2022-10-06T04:31:00.927Z,15.19
2022-10-06T04:32:02.159Z,15.21
2022-10-06T04:32:59.620Z,15.25
2022-10-06T04:34:01.802Z,15.22
2022-10-06T04:35:01.969Z,15.31
2022-10-06T04:36:02.163Z,15.24
2022-10-06T04:37:03.328Z,15.19
2022-10-06T04:38:01.109Z,15.17
2022-10-06T04:39:03.289Z,15.25
2022-10-06T04:40:01.677Z,15.10
2022-10-06T04:41:03.862Z,15.11
2022-10-06T04:42:04.843Z,15.06
2022-10-06T04:43:04.260Z,15.04
2022-10-06T04:44:02.773Z,15.18
2022-10-06T04:45:04.954Z,15.06
2022-10-06T04:46:18.128Z,15.03
2022-10-06T04:47:07.508Z,15.07
2022-10-06T04:48:05.741Z,15.17
2022-10-06T04:49:04.245Z,15.17
2022-10-06T04:50:04.558Z,15.06
2022-10-06T04:51:04.862Z,15.06
2022-10-06T04:52:08.027Z,15.14
2022-10-06T04:53:06.272Z,15.17
2022-10-06T04:54:05.761Z,15.17
2022-10-06T04:55:06.917Z,15.22
2022-10-06T04:56:06.412Z,15.24
2022-10-06T04:57:10.110Z,15.19
2022-10-06T04:58:09.822Z,15.18
2022-10-06T04:59:09.056Z,15.14
2022-10-06T05:00:13.923Z,15.18
2022-10-06T05:01:09.963Z,15.17
2022-10-06T05:02:08.362Z,15.11
2022-10-06T05:03:11.971Z,15.19
2022-10-06T05:04:10.675Z,15.21
2022-10-06T05:05:10.858Z,15.18
2022-10-06T05:06:11.039Z,15.17
2022-10-06T05:07:09.794Z,15.21
2022-10-06T05:08:12.101Z,15.25
2022-10-06T05:09:11.206Z,15.22
2022-10-06T05:10:12.566Z,15.14
2022-10-06T05:11:15.062Z,15.14
2022-10-06T05:12:12.293Z,15.17
2022-10-06T05:13:13.483Z,15.15
2022-10-06T05:14:11.875Z,15.22
2022-10-06T05:15:12.194Z,15.11
2022-10-06T05:16:12.589Z,15.21
2022-10-06T05:17:12.867Z,15.17
2022-10-06T05:18:15.039Z,15.06
2022-10-06T05:19:15.221Z,15.10
2022-10-06T05:20:13.740Z,15.06
2022-10-06T05:21:15.926Z,15.11
2022-10-06T05:22:14.326Z,15.19
2022-10-06T05:23:14.742Z,15.15
2022-10-06T05:24:14.980Z,15.14
2022-10-06T05:25:15.197Z,15.14
2022-10-06T05:26:17.371Z,15.17
2022-10-06T05:27:15.778Z,15.10
2022-10-06T05:28:16.166Z,15.14
2022-10-06T05:29:16.356Z,15.11
2022-10-06T05:30:16.705Z,15.18
2022-10-06T05:31:19.887Z,15.17
2022-10-06T05:32:20.003Z,15.17
2022-10-06T05:33:19.001Z,15.09
2022-10-06T05:34:21.184Z,15.10
2022-10-06T05:35:18.097Z,15.10
2022-10-06T05:36:18.447Z,15.04
2022-10-06T05:37:18.780Z,15.06
2022-10-06T05:38:20.974Z,15.15
2022-10-06T05:39:21.155Z,15.14
2022-10-06T05:40:20.523Z,15.19
2022-10-06T05:41:19.912Z,15.19
2022-10-06T05:42:20.250Z,15.33
2022-10-06T05:43:22.440Z,15.22
2022-10-06T05:44:22.612Z,15.24
2022-10-06T05:45:21.149Z,15.33
2022-10-06T05:46:22.258Z,15.27
2022-10-06T05:47:22.607Z,15.25
2022-10-06T05:48:23.833Z,15.19
2022-10-06T05:49:22.984Z,15.24
2022-10-06T05:50:25.300Z,15.31
2022-10-06T05:51:27.911Z,15.27
2022-10-06T05:52:26.907Z,15.22
2022-10-06T05:53:25.156Z,15.18
2022-10-06T05:54:23.715Z,15.18
2022-10-06T05:55:25.916Z,15.24
2022-10-06T05:56:25.127Z,15.24
2022-10-06T05:57:24.579Z,15.21
2022-10-06T05:58:26.757Z,15.14
2022-10-06T05:59:25.067Z,15.11
2022-10-06T06:00:25.287Z,15.18
2022-10-06T06:01:26.623Z,15.10
2022-10-06T06:02:26.879Z,15.09
2022-10-06T06:03:28.061Z,15.10
2022-10-06T06:04:28.238Z,15.14
2022-10-06T06:05:28.430Z,15.15
2022-10-06T06:06:28.092Z,15.04
2022-10-06T06:07:29.256Z,15.04
2022-10-06T06:08:29.687Z,15.17
2022-10-06T06:09:30.034Z,15.11
2022-10-06T06:10:29.900Z,15.15
2022-10-06T06:11:28.562Z,15.19
2022-10-06T06:12:30.766Z,15.28
2022-10-06T06:13:31.892Z,15.29
2022-10-06T06:14:31.334Z,15.40
2022-10-06T06:15:31.336Z,15.35
2022-10-06T06:16:31.584Z,15.37
2022-10-06T06:17:31.687Z,15.36
2022-10-06T06:18:32.778Z,15.40
2022-10-06T06:19:33.541Z,15.35
2022-10-06T06:20:32.770Z,15.29
2022-10-06T06:21:32.928Z,15.39
2022-10-06T06:22:33.115Z,15.36
2022-10-06T06:23:32.811Z,15.35
2022-10-06T06:24:35.002Z,15.39
2022-10-06T06:25:32.561Z,15.36
2022-10-06T06:26:32.786Z,15.36
2022-10-06T06:27:35.000Z,15.44
2022-10-06T06:28:35.233Z,15.35
2022-10-06T06:29:34.758Z,15.37
2022-10-06T06:30:35.959Z,15.42
2022-10-06T06:31:36.166Z,15.40
2022-10-06T06:32:34.674Z,15.52
2022-10-06T06:33:36.853Z,15.55
2022-10-06T06:34:37.993Z,15.49
2022-10-06T06:35:35.445Z,15.52
2022-10-06T06:36:36.703Z,15.59
2022-10-06T06:37:37.903Z,15.61
2022-10-06T06:38:38.085Z,15.55
2022-10-06T06:39:38.264Z,15.62
2022-10-06T06:40:38.949Z,15.64
2022-10-06T06:41:38.262Z,15.62
2022-10-06T06:42:37.532Z,15.62
2022-10-06T06:43:39.810Z,15.57
2022-10-06T06:44:37.983Z,15.65
2022-10-06T06:45:39.430Z,15.67
2022-10-06T06:46:42.030Z,15.67
2022-10-06T06:47:38.851Z,15.68
2022-10-06T06:48:39.085Z,15.83
2022-10-06T06:49:39.313Z,15.73
2022-10-06T06:50:40.427Z,15.72
2022-10-06T06:51:41.945Z,15.76
2022-10-06T06:52:40.116Z,15.73
2022-10-06T06:53:40.356Z,15.76
2022-10-06T06:54:40.580Z,15.76
2022-10-06T06:55:40.915Z,15.75
2022-10-06T06:56:43.026Z,15.79
2022-10-06T06:57:41.448Z,15.90
2022-10-06T06:58:41.677Z,15.83
2022-10-06T06:59:41.907Z,15.86
2022-10-06T07:00:42.305Z,15.90
2022-10-06T07:01:43.475Z,16.23
2022-10-06T07:02:44.610Z,16.38
2022-10-06T07:03:57.075Z,16.51
2022-10-06T07:04:44.153Z,16.65
2022-10-06T07:05:44.408Z,16.60
2022-10-06T07:06:45.639Z,16.81
2022-10-06T07:07:45.819Z,16.90
2022-10-06T07:08:44.237Z,16.97
2022-10-06T07:09:46.400Z,16.94
2022-10-06T07:10:44.894Z,17.09
2022-10-06T07:11:47.038Z,17.31
2022-10-06T07:12:45.449Z,17.31
2022-10-06T07:13:47.640Z,17.02
2022-10-06T07:14:46.065Z,17.01
2022-10-06T07:15:49.780Z,17.05
2022-10-06T07:16:46.692Z,17.14
2022-10-06T07:17:48.880Z,17.24
2022-10-06T07:18:49.062Z,17.30
2022-10-06T07:19:47.494Z,17.12
2022-10-06T07:20:51.177Z,17.29
2022-10-06T07:21:47.981Z,17.20
2022-10-06T07:22:50.168Z,17.52
2022-10-06T07:23:50.345Z,17.52
2022-10-06T07:24:49.707Z,17.49
2022-10-06T07:25:52.436Z,17.33
2022-10-06T07:26:49.254Z,17.51
2022-10-06T07:27:51.430Z,17.44
2022-10-06T07:28:49.859Z,17.56
2022-10-06T07:29:50.347Z,17.31
2022-10-06T07:30:53.222Z,17.48
2022-10-06T07:31:50.664Z,17.44
2022-10-06T07:32:53.803Z,17.63
2022-10-06T07:33:51.245Z,17.57
2022-10-06T07:34:51.750Z,17.54
2022-10-06T07:35:52.759Z,17.83
2022-10-06T07:36:52.051Z,17.78
2022-10-06T07:37:54.242Z,17.71
2022-10-06T07:38:53.478Z,17.49
2022-10-06T07:39:55.665Z,17.60
2022-10-06T07:41:17.906Z,17.24
2022-10-06T07:41:54.393Z,17.01
2022-10-06T07:42:53.687Z,16.93
2022-10-06T07:43:55.866Z,16.90
2022-10-06T07:44:56.446Z,17.38
2022-10-06T07:45:57.189Z,17.08
2022-10-06T07:46:55.528Z,16.94
2022-10-06T07:47:56.907Z,17.09
2022-10-06T07:48:55.323Z,16.99
2022-10-06T07:49:55.674Z,17.26
2022-10-06T07:50:57.469Z,17.36
2022-10-06T07:51:56.139Z,17.78
2022-10-06T07:52:59.748Z,17.60
2022-10-06T07:53:59.437Z,17.78
2022-10-06T07:54:57.829Z,17.80
2022-10-06T07:56:00.157Z,17.27
2022-10-06T07:56:58.406Z,17.57
2022-10-06T07:57:58.569Z,17.76
2022-10-06T07:58:59.923Z,18.18
2022-10-06T08:00:02.882Z,18.16
2022-10-06T08:01:00.325Z,17.86
2022-10-06T08:02:00.699Z,18.08
2022-10-06T08:02:59.920Z,17.85
2022-10-06T08:04:01.226Z,17.46
2022-10-06T08:05:01.399Z,16.94
2022-10-06T08:06:02.550Z,16.78
2022-10-06T08:07:01.855Z,17.14
2022-10-06T08:08:02.467Z,17.44
2022-10-06T08:09:01.742Z,17.70
2022-10-06T08:10:02.015Z,18.05
2022-10-06T08:11:04.734Z,18.05
2022-10-06T08:12:02.563Z,17.86
2022-10-06T08:13:03.941Z,17.87
2022-10-06T08:14:02.123Z,18.11
2022-10-06T08:15:05.980Z,18.26
2022-10-06T08:16:07.145Z,18.34
2022-10-06T08:17:02.967Z,18.49
2022-10-06T08:18:12.171Z,18.44
2022-10-06T08:19:04.438Z,18.28
2022-10-06T08:20:03.955Z,18.26
2022-10-06T08:21:06.098Z,18.31
2022-10-06T08:22:07.768Z,18.47
2022-10-06T08:23:06.395Z,17.71
2022-10-06T08:24:06.591Z,17.24
2022-10-06T08:25:07.313Z,16.97
2022-10-06T08:26:07.969Z,17.09
2022-10-06T08:27:07.192Z,17.36
2022-10-06T08:28:09.422Z,17.67
2022-10-06T08:29:08.064Z,18.23
2022-10-06T08:30:07.650Z,18.05
2022-10-06T08:31:09.854Z,18.22
2022-10-06T08:32:09.052Z,18.22
2022-10-06T08:33:09.228Z,18.08
2022-10-06T08:34:12.064Z,18.58
2022-10-06T08:35:08.065Z,18.29
2022-10-06T08:36:11.749Z,18.47
2022-10-06T08:37:19.958Z,18.65
2022-10-06T08:38:11.823Z,18.59
2022-10-06T08:39:10.993Z,18.45
2022-10-06T08:40:11.157Z,18.00
2022-10-06T08:41:10.565Z,17.98
2022-10-06T08:42:11.976Z,17.92
2022-10-06T08:43:12.280Z,18.22
2022-10-06T08:44:12.406Z,18.40
2022-10-06T08:45:12.573Z,18.33
2022-10-06T08:46:12.740Z,18.50
2022-10-06T08:47:11.419Z,18.11
2022-10-06T08:48:13.662Z,17.92
2022-10-06T08:49:13.857Z,18.13
2022-10-06T08:50:12.390Z,18.20
2022-10-06T08:51:14.488Z,18.41
2022-10-06T08:52:12.924Z,18.29
2022-10-06T08:53:16.293Z,18.47
2022-10-06T08:54:15.356Z,18.22
2022-10-06T08:55:13.791Z,18.11
2022-10-06T08:56:15.973Z,18.22
2022-10-06T08:57:16.304Z,18.59
2022-10-06T08:58:16.385Z,18.45
2022-10-06T08:59:16.573Z,18.08
2022-10-06T09:00:19.487Z,18.25
2022-10-06T09:01:18.475Z,18.10
2022-10-06T09:02:15.826Z,18.33
2022-10-06T09:03:16.900Z,18.59
2022-10-06T09:04:18.274Z,18.65
2022-10-06T09:05:16.587Z,18.92
2022-10-06T09:06:18.784Z,18.98
2022-10-06T09:07:17.094Z,18.73
2022-10-06T09:08:17.333Z,18.47
2022-10-06T09:09:19.513Z,18.66
2022-10-06T09:10:18.083Z,18.84
2022-10-06T09:11:20.029Z,18.80
2022-10-06T09:12:18.466Z,18.84
2022-10-06T09:13:21.748Z,18.55
2022-10-06T09:14:19.050Z,18.84
2022-10-06T09:15:20.105Z,18.88
2022-10-06T09:16:19.605Z,18.90
2022-10-06T09:17:21.716Z,18.75
2022-10-06T09:18:20.154Z,18.96
2022-10-06T09:19:20.413Z,19.19
2022-10-06T09:20:20.707Z,18.95
2022-10-06T09:21:24.353Z,18.96
2022-10-06T09:22:21.210Z,18.68
2022-10-06T09:23:23.378Z,18.98
2022-10-06T09:24:21.693Z,19.22
2022-10-06T09:25:23.845Z,19.24
2022-10-06T09:26:24.036Z,19.15
2022-10-06T09:27:22.489Z,19.22
2022-10-06T09:28:22.771Z,18.93
2022-10-06T09:29:22.982Z,18.93
2022-10-06T09:30:26.140Z,18.22
2022-10-06T09:31:24.949Z,17.83
2022-10-06T09:32:25.649Z,17.97
2022-10-06T09:33:24.084Z,18.70
2022-10-06T09:34:24.333Z,18.52
2022-10-06T09:35:27.493Z,18.40
2022-10-06T09:36:24.814Z,18.71
2022-10-06T09:37:26.988Z,18.81
2022-10-06T09:38:25.299Z,19.08
2022-10-06T09:39:25.538Z,19.02
2022-10-06T09:40:26.661Z,18.88
2022-10-06T09:41:27.063Z,18.90
2022-10-06T09:42:26.375Z,19.19
2022-10-06T09:43:26.615Z,19.39
2022-10-06T09:44:26.860Z,19.24
2022-10-06T09:45:30.522Z,19.24
2022-10-06T09:46:27.344Z,18.44
2022-10-06T09:47:30.972Z,17.94
2022-10-06T09:48:31.168Z,17.36
2022-10-06T09:49:28.108Z,17.15
2022-10-06T09:50:31.815Z,17.94
2022-10-06T09:51:29.603Z,18.28
2022-10-06T09:52:30.827Z,18.59
2022-10-06T09:53:35.489Z,18.49
2022-10-06T09:54:31.449Z,18.52
2022-10-06T09:55:30.756Z,18.62
2022-10-06T09:56:31.995Z,18.92
2022-10-06T09:57:32.185Z,18.84
2022-10-06T09:58:30.611Z,18.73
2022-10-06T09:59:30.857Z,19.08
2022-10-06T10:00:34.034Z,18.63
2022-10-06T10:01:33.303Z,18.90
2022-10-06T10:02:33.514Z,18.98
2022-10-06T10:03:32.904Z,19.39
2022-10-06T10:04:33.259Z,19.51
2022-10-06T10:05:36.011Z,19.00
2022-10-06T10:06:32.839Z,18.88
2022-10-06T10:07:35.022Z,19.02
2022-10-06T10:09:33.545Z,18.92
2022-10-06T10:10:37.199Z,18.99
2022-10-06T10:11:34.949Z,19.00
2022-10-06T10:12:35.788Z,18.78
2022-10-06T10:13:34.491Z,18.80
2022-10-06T10:14:37.623Z,18.98
2022-10-06T10:15:38.323Z,19.04
2022-10-06T10:16:36.308Z,19.07
2022-10-06T10:17:38.415Z,19.14
2022-10-06T10:18:36.815Z,19.76
2022-10-06T10:19:36.999Z,20.09
2022-10-06T10:20:39.871Z,20.24
2022-10-06T10:21:38.622Z,20.24
2022-10-06T10:22:38.806Z,19.77
2022-10-06T10:23:38.990Z,19.02
2022-10-06T10:24:38.502Z,18.93
2022-10-06T10:25:38.772Z,19.30
2022-10-06T10:26:40.006Z,19.62
2022-10-06T10:27:38.339Z,19.47
2022-10-06T10:28:40.523Z,20.03
2022-10-06T10:29:38.824Z,20.14
2022-10-06T10:30:40.037Z,19.91
2022-10-06T10:31:40.465Z,19.74
2022-10-06T10:32:41.521Z,19.52
2022-10-06T10:33:49.672Z,18.88
2022-10-06T10:34:41.281Z,18.88
2022-10-06T10:35:43.465Z,18.71
2022-10-06T10:36:40.902Z,18.80
2022-10-06T10:37:41.143Z,19.34
2022-10-06T10:38:44.837Z,19.27
2022-10-06T10:39:41.925Z,19.07
2022-10-06T10:40:41.989Z,19.56
2022-10-06T10:41:42.232Z,20.09
2022-10-06T10:42:43.423Z,19.99
2022-10-06T10:43:42.827Z,20.28
2022-10-06T10:44:42.948Z,19.51
2022-10-06T10:45:43.194Z,18.68
2022-10-06T10:46:43.534Z,18.50
2022-10-06T10:47:44.652Z,18.01
2022-10-06T10:48:46.039Z,18.01
2022-10-06T10:49:46.112Z,17.95
2022-10-06T10:50:46.245Z,18.13
2022-10-06T10:51:46.426Z,18.68
2022-10-06T10:52:47.105Z,19.02
2022-10-06T10:53:46.563Z,18.31
2022-10-06T10:54:47.803Z,18.19
2022-10-06T10:55:47.988Z,18.26
2022-10-06T10:56:48.170Z,18.20
2022-10-06T10:57:48.345Z,18.19
2022-10-06T10:58:50.061Z,18.38
2022-10-06T10:59:48.801Z,19.14
2022-10-06T11:00:49.561Z,19.34
2022-10-06T11:01:48.743Z,19.16
2022-10-06T11:02:49.889Z,19.34
2022-10-06T11:03:51.080Z,19.29
2022-10-06T11:04:48.640Z,20.02
2022-10-06T11:05:50.854Z,20.13
2022-10-06T11:06:49.146Z,19.40
2022-10-06T11:07:49.409Z,19.39
2022-10-06T11:08:49.636Z,19.66
2022-10-06T11:09:49.881Z,19.39
2022-10-06T11:10:52.075Z,19.14
2022-10-06T11:11:52.433Z,18.99
2022-10-06T11:12:50.678Z,19.31
2022-10-06T11:13:50.973Z,19.63
2022-10-06T11:14:51.219Z,19.55
2022-10-06T11:15:53.495Z,19.99
2022-10-06T11:16:53.600Z,20.22
2022-10-06T11:17:52.042Z,19.67
2022-10-06T11:18:52.282Z,19.95
2022-10-06T11:19:52.519Z,20.29
2022-10-06T11:20:54.675Z,19.91
2022-10-06T11:21:54.864Z,20.07
2022-10-06T11:22:55.090Z,19.69
2022-10-06T11:23:53.648Z,19.47
2022-10-06T11:24:53.926Z,19.59
2022-10-06T11:25:54.140Z,19.44
2022-10-06T11:26:54.381Z,19.64
2022-10-06T11:27:56.619Z,19.55
2022-10-06T11:28:56.718Z,19.70
2022-10-06T11:29:55.321Z,19.44
2022-10-06T11:30:57.342Z,19.47
2022-10-06T11:31:57.680Z,19.85
2022-10-06T11:32:56.087Z,19.88
2022-10-06T11:33:59.734Z,19.76
2022-10-06T11:36:13.857Z,19.55
2022-10-06T11:37:13.682Z,19.81
2022-10-06T11:38:12.983Z,19.99
2022-10-06T11:39:15.167Z,19.49
2022-10-06T11:40:13.494Z,19.58
2022-10-06T11:41:17.188Z,19.39
2022-10-06T11:42:15.038Z,19.34
2022-10-06T11:43:14.335Z,19.62
2022-10-06T11:44:16.522Z,19.62
2022-10-06T11:45:14.841Z,19.91
2022-10-06T11:46:16.126Z,19.95
2022-10-06T11:47:17.373Z,19.86
2022-10-06T11:48:15.670Z,20.09
2022-10-06T11:49:15.909Z,20.28
2022-10-06T11:50:18.071Z,19.99
2022-10-06T11:51:17.428Z,19.66
2022-10-06T11:52:18.652Z,19.59
2022-10-06T11:53:16.959Z,19.94
2022-10-06T11:54:17.198Z,19.70
2022-10-06T11:55:19.401Z,19.66
2022-10-06T11:56:18.743Z,19.59
2022-10-06T11:57:19.074Z,19.73
2022-10-06T11:59:21.147Z,19.79
2022-10-06T12:00:18.976Z,19.62
2022-10-06T12:01:20.186Z,19.44
2022-10-06T12:02:19.554Z,19.02
2022-10-06T12:03:21.715Z,19.26
2022-10-06T12:04:24.386Z,19.73
2022-10-06T12:05:54.900Z,19.45
2022-10-06T12:06:23.168Z,19.40
2022-10-06T12:07:20.981Z,19.14
2022-10-06T12:08:23.178Z,19.04
2022-10-06T12:09:22.341Z,19.33
2022-10-06T12:10:21.779Z,19.39
2022-10-06T12:11:25.447Z,19.76
2022-10-06T12:12:22.275Z,19.41
2022-10-06T12:17:05.612Z,19.30
2022-10-06T12:17:25.618Z,19.31
2022-10-06T12:18:26.800Z,19.33
2022-10-06T12:19:26.015Z,18.99
2022-10-06T12:20:25.380Z,19.54
2022-10-06T12:21:27.767Z,19.19
2022-10-06T12:22:25.957Z,18.88
2022-10-06T12:23:26.376Z,18.96
2022-10-06T12:24:27.560Z,18.92
2022-10-06T12:25:26.951Z,19.04
2022-10-06T12:26:27.287Z,19.30
2022-10-06T12:27:26.599Z,19.11
2022-10-06T12:28:28.809Z,19.02
2022-10-06T12:29:27.108Z,19.64
2022-10-06T12:30:29.381Z,19.92
2022-10-06T12:31:28.611Z,20.03
2022-10-06T12:32:27.871Z,20.00
2022-10-06T12:33:30.059Z,19.79
2022-10-06T12:34:28.370Z,19.69
2022-10-06T12:35:28.609Z,19.94
2022-10-06T12:36:33.305Z,19.54
2022-10-06T12:37:29.151Z,19.59
2022-10-06T12:38:31.339Z,19.52
2022-10-06T12:39:30.523Z,19.22
2022-10-06T12:40:29.961Z,18.93
2022-10-06T12:41:33.629Z,18.99
2022-10-06T12:42:30.462Z,19.30
2022-10-06T12:43:32.647Z,19.21
2022-10-06T12:44:32.835Z,19.41
2022-10-06T12:45:33.250Z,19.14
2022-10-06T12:46:32.635Z,19.59
2022-10-06T12:47:33.815Z,19.71
2022-10-06T12:48:35.008Z,19.81
2022-10-06T12:49:34.247Z,19.81
2022-10-06T12:50:34.421Z,19.54
2022-10-06T12:52:33.416Z,19.15
2022-10-06T12:53:33.781Z,19.04
2022-10-06T12:54:33.985Z,19.18
2022-10-06T12:55:35.176Z,19.07
2022-10-06T12:56:34.949Z,19.12
2022-10-06T12:57:36.637Z,19.07
2022-10-06T12:58:35.213Z,19.30
2022-10-06T12:59:35.381Z,19.21
2022-10-06T13:00:37.490Z,19.07
2022-10-06T13:01:35.971Z,18.93
2022-10-06T13:02:36.239Z,19.41
2022-10-06T13:03:37.447Z,19.66
2022-10-06T13:04:36.739Z,19.36